sensor_id;sensor_type;location;lat;lon;timestamp;temperature;humidity
33067;DHT22;19428;49.024;8.366;2023-07-09T00:00:14;21.50;99.90
33067;DHT22;19428;49.024;8.366;2023-07-09T00:02:40;21.50;99.90
33067;DHT22;19428;49.024;8.366;2023-07-09T00:05:13;21.50;99.90
33067;DHT22;19428;49.024;8.366;2023-07-09T00:07:39;21.60;99.90
33067;DHT22;19428;49.024;8.366;2023-07-09T00:10:20;21.50;99.90
33067;DHT22;19428;49.024;8.366;2023-07-09T00:12:46;21.40;99.90
33067;DHT22;19428;49.024;8.366;2023-07-09T00:15:14;21.40;99.90
33067;DHT22;19428;49.024;8.366;2023-07-09T00:17:44;21.40;99.90
33067;DHT22;19428;49.024;8.366;2023-07-09T00:20:13;21.50;99.90
33067;DHT22;19428;49.024;8.366;2023-07-09T00:22:42;21.50;99.90
33067;DHT22;19428;49.024;8.366;2023-07-09T00:25:13;21.50;99.90
33067;DHT22;19428;49.024;8.366;2023-07-09T00:27:42;21.40;99.90
33067;DHT22;19428;49.024;8.366;2023-07-09T00:30:16;21.20;99.90
33067;DHT22;19428;49.024;8.366;2023-07-09T00:32:42;21.20;99.90
33067;DHT22;19428;49.024;8.366;2023-07-09T00:35:09;21.10;99.90
33067;DHT22;19428;49.024;8.366;2023-07-09T00:37:35;20.90;99.90
33067;DHT22;19428;49.024;8.366;2023-07-09T00:40:01;20.70;99.90
33067;DHT22;19428;49.024;8.366;2023-07-09T00:42:26;20.80;99.90
33067;DHT22;19428;49.024;8.366;2023-07-09T00:44:54;20.70;99.90
33067;DHT22;19428;49.024;8.366;2023-07-09T00:47:44;20.70;99.90
33067;DHT22;19428;49.024;8.366;2023-07-09T00:50:36;20.70;99.90
33067;DHT22;19428;49.024;8.366;2023-07-09T00:55:45;20.80;99.90
33067;DHT22;19428;49.024;8.366;2023-07-09T00:58:13;20.90;99.90
33067;DHT22;19428;49.024;8.366;2023-07-09T01:00:44;21.10;99.90
33067;DHT22;19428;49.024;8.366;2023-07-09T01:03:18;21.10;99.90
33067;DHT22;19428;49.024;8.366;2023-07-09T01:05:46;21.10;99.90
33067;DHT22;19428;49.024;8.366;2023-07-09T01:08:17;21.00;99.90
33067;DHT22;19428;49.024;8.366;2023-07-09T01:10:43;20.80;99.90
33067;DHT22;19428;49.024;8.366;2023-07-09T01:13:08;20.70;99.90
33067;DHT22;19428;49.024;8.366;2023-07-09T01:15:35;20.60;99.90
33067;DHT22;19428;49.024;8.366;2023-07-09T01:18:05;20.40;99.90
33067;DHT22;19428;49.024;8.366;2023-07-09T01:20:31;20.50;99.90
33067;DHT22;19428;49.024;8.366;2023-07-09T01:22:57;20.40;99.90
33067;DHT22;19428;49.024;8.366;2023-07-09T01:25:26;20.30;99.90
33067;DHT22;19428;49.024;8.366;2023-07-09T01:27:54;20.30;99.90
33067;DHT22;19428;49.024;8.366;2023-07-09T01:30:22;20.20;99.90
33067;DHT22;19428;49.024;8.366;2023-07-09T01:32:49;20.30;99.90
33067;DHT22;19428;49.024;8.366;2023-07-09T01:35:17;20.30;99.90
33067;DHT22;19428;49.024;8.366;2023-07-09T01:37:43;20.30;99.90
33067;DHT22;19428;49.024;8.366;2023-07-09T01:40:12;20.30;99.90
33067;DHT22;19428;49.024;8.366;2023-07-09T01:42:37;20.30;99.90
33067;DHT22;19428;49.024;8.366;2023-07-09T01:45:05;20.20;99.90
33067;DHT22;19428;49.024;8.366;2023-07-09T01:47:31;20.20;99.90
33067;DHT22;19428;49.024;8.366;2023-07-09T01:49:57;20.00;99.90
33067;DHT22;19428;49.024;8.366;2023-07-09T01:52:25;19.90;99.90
33067;DHT22;19428;49.024;8.366;2023-07-09T01:54:52;19.90;99.90
33067;DHT22;19428;49.024;8.366;2023-07-09T01:57:24;20.00;99.90
33067;DHT22;19428;49.024;8.366;2023-07-09T01:59:51;20.00;99.90
33067;DHT22;19428;49.024;8.366;2023-07-09T02:02:18;20.00;99.90
33067;DHT22;19428;49.024;8.366;2023-07-09T02:04:48;20.00;99.90
33067;DHT22;19428;49.024;8.366;2023-07-09T02:07:15;20.00;99.90
33067;DHT22;19428;49.024;8.366;2023-07-09T02:09:41;19.80;99.90
33067;DHT22;19428;49.024;8.366;2023-07-09T02:12:08;19.80;99.90
33067;DHT22;19428;49.024;8.366;2023-07-09T02:14:33;19.80;99.90
33067;DHT22;19428;49.024;8.366;2023-07-09T02:16:59;19.80;99.90
33067;DHT22;19428;49.024;8.366;2023-07-09T02:19:24;19.70;99.90
33067;DHT22;19428;49.024;8.366;2023-07-09T02:21:50;19.80;99.90
33067;DHT22;19428;49.024;8.366;2023-07-09T02:24:15;19.80;99.90
33067;DHT22;19428;49.024;8.366;2023-07-09T02:26:41;20.00;99.90
33067;DHT22;19428;49.024;8.366;2023-07-09T02:29:07;19.80;99.90
33067;DHT22;19428;49.024;8.366;2023-07-09T02:31:32;19.80;99.90
33067;DHT22;19428;49.024;8.366;2023-07-09T02:33:59;19.70;99.90
33067;DHT22;19428;49.024;8.366;2023-07-09T02:36:25;19.60;99.90
33067;DHT22;19428;49.024;8.366;2023-07-09T02:38:51;19.60;99.90
33067;DHT22;19428;49.024;8.366;2023-07-09T02:41:16;19.50;99.90
33067;DHT22;19428;49.024;8.366;2023-07-09T02:43:42;19.60;99.90
33067;DHT22;19428;49.024;8.366;2023-07-09T02:46:07;19.70;99.90
33067;DHT22;19428;49.024;8.366;2023-07-09T02:48:33;19.80;99.90
33067;DHT22;19428;49.024;8.366;2023-07-09T02:50:58;19.70;99.90
33067;DHT22;19428;49.024;8.366;2023-07-09T02:53:24;19.70;99.90
33067;DHT22;19428;49.024;8.366;2023-07-09T02:55:50;19.50;99.90
33067;DHT22;19428;49.024;8.366;2023-07-09T02:58:16;19.30;99.90
33067;DHT22;19428;49.024;8.366;2023-07-09T03:00:41;19.50;99.90
33067;DHT22;19428;49.024;8.366;2023-07-09T03:03:07;19.50;99.90
33067;DHT22;19428;49.024;8.366;2023-07-09T03:05:33;19.50;99.90
33067;DHT22;19428;49.024;8.366;2023-07-09T03:07:59;19.40;99.90
33067;DHT22;19428;49.024;8.366;2023-07-09T03:10:24;19.30;99.90
33067;DHT22;19428;49.024;8.366;2023-07-09T03:12:50;19.30;99.90
33067;DHT22;19428;49.024;8.366;2023-07-09T03:15:15;19.20;99.90
33067;DHT22;19428;49.024;8.366;2023-07-09T03:17:41;19.10;99.90
33067;DHT22;19428;49.024;8.366;2023-07-09T03:20:07;19.00;99.90
33067;DHT22;19428;49.024;8.366;2023-07-09T03:22:33;19.00;99.90
33067;DHT22;19428;49.024;8.366;2023-07-09T03:24:59;19.10;99.90
33067;DHT22;19428;49.024;8.366;2023-07-09T03:27:24;19.20;99.90
33067;DHT22;19428;49.024;8.366;2023-07-09T03:29:50;19.30;99.90
33067;DHT22;19428;49.024;8.366;2023-07-09T03:32:15;19.30;99.90
33067;DHT22;19428;49.024;8.366;2023-07-09T03:34:41;19.10;99.90
33067;DHT22;19428;49.024;8.366;2023-07-09T03:37:06;19.20;99.90
33067;DHT22;19428;49.024;8.366;2023-07-09T03:39:32;19.10;99.90
33067;DHT22;19428;49.024;8.366;2023-07-09T03:41:57;18.90;99.90
33067;DHT22;19428;49.024;8.366;2023-07-09T03:44:23;18.80;99.90
33067;DHT22;19428;49.024;8.366;2023-07-09T03:46:48;18.90;99.90
33067;DHT22;19428;49.024;8.366;2023-07-09T03:49:14;18.80;99.90
33067;DHT22;19428;49.024;8.366;2023-07-09T03:51:40;18.90;99.90
33067;DHT22;19428;49.024;8.366;2023-07-09T03:54:05;19.10;99.90
33067;DHT22;19428;49.024;8.366;2023-07-09T03:56:32;19.30;99.90
33067;DHT22;19428;49.024;8.366;2023-07-09T03:58:58;19.40;99.90
33067;DHT22;19428;49.024;8.366;2023-07-09T04:01:23;19.30;99.90
33067;DHT22;19428;49.024;8.366;2023-07-09T04:03:49;19.30;99.90
33067;DHT22;19428;49.024;8.366;2023-07-09T04:06:14;19.50;99.90
33067;DHT22;19428;49.024;8.366;2023-07-09T04:08:40;19.60;99.90
33067;DHT22;19428;49.024;8.366;2023-07-09T04:11:06;19.80;99.90
33067;DHT22;19428;49.024;8.366;2023-07-09T04:13:31;20.00;99.90
33067;DHT22;19428;49.024;8.366;2023-07-09T04:15:58;20.10;99.90
33067;DHT22;19428;49.024;8.366;2023-07-09T04:18:23;20.20;99.90
33067;DHT22;19428;49.024;8.366;2023-07-09T04:20:50;19.80;99.90
33067;DHT22;19428;49.024;8.366;2023-07-09T04:23:16;19.80;99.90
33067;DHT22;19428;49.024;8.366;2023-07-09T04:25:42;20.00;99.90
33067;DHT22;19428;49.024;8.366;2023-07-09T04:28:07;20.40;99.90
33067;DHT22;19428;49.024;8.366;2023-07-09T04:30:33;20.60;99.90
33067;DHT22;19428;49.024;8.366;2023-07-09T04:32:58;20.80;99.90
33067;DHT22;19428;49.024;8.366;2023-07-09T04:35:24;21.00;99.90
33067;DHT22;19428;49.024;8.366;2023-07-09T04:37:49;21.20;99.90
33067;DHT22;19428;49.024;8.366;2023-07-09T04:40:17;21.30;99.90
33067;DHT22;19428;49.024;8.366;2023-07-09T04:42:43;21.40;99.90
33067;DHT22;19428;49.024;8.366;2023-07-09T04:45:11;21.40;99.90
33067;DHT22;19428;49.024;8.366;2023-07-09T04:47:38;21.50;99.90
33067;DHT22;19428;49.024;8.366;2023-07-09T04:50:05;21.80;99.90
33067;DHT22;19428;49.024;8.366;2023-07-09T04:52:31;22.00;99.90
33067;DHT22;19428;49.024;8.366;2023-07-09T04:54:57;22.40;99.90
33067;DHT22;19428;49.024;8.366;2023-07-09T04:57:23;22.50;99.90
33067;DHT22;19428;49.024;8.366;2023-07-09T04:59:48;22.60;99.90
33067;DHT22;19428;49.024;8.366;2023-07-09T05:02:15;22.60;99.90
33067;DHT22;19428;49.024;8.366;2023-07-09T05:04:40;22.70;99.90
33067;DHT22;19428;49.024;8.366;2023-07-09T05:07:06;22.90;99.90
33067;DHT22;19428;49.024;8.366;2023-07-09T05:09:32;23.00;99.90
33067;DHT22;19428;49.024;8.366;2023-07-09T05:11:59;23.40;99.90
33067;DHT22;19428;49.024;8.366;2023-07-09T05:14:26;23.20;99.90
33067;DHT22;19428;49.024;8.366;2023-07-09T05:16:53;23.00;99.90
33067;DHT22;19428;49.024;8.366;2023-07-09T05:19:19;22.80;99.90
33067;DHT22;19428;49.024;8.366;2023-07-09T05:21:46;23.00;99.90
33067;DHT22;19428;49.024;8.366;2023-07-09T05:24:11;22.90;99.90
33067;DHT22;19428;49.024;8.366;2023-07-09T05:26:37;22.60;99.90
33067;DHT22;19428;49.024;8.366;2023-07-09T05:29:05;22.50;99.90
33067;DHT22;19428;49.024;8.366;2023-07-09T05:31:32;22.60;99.90
33067;DHT22;19428;49.024;8.366;2023-07-09T05:33:59;22.90;99.90
33067;DHT22;19428;49.024;8.366;2023-07-09T05:36:26;23.00;99.90
33067;DHT22;19428;49.024;8.366;2023-07-09T05:38:52;23.10;99.90
33067;DHT22;19428;49.024;8.366;2023-07-09T05:41:18;23.30;99.90
33067;DHT22;19428;49.024;8.366;2023-07-09T05:43:44;23.80;99.90
33067;DHT22;19428;49.024;8.366;2023-07-09T05:46:11;24.30;93.90
33067;DHT22;19428;49.024;8.366;2023-07-09T05:48:37;24.80;76.90
33067;DHT22;19428;49.024;8.366;2023-07-09T05:51:03;24.90;70.70
33067;DHT22;19428;49.024;8.366;2023-07-09T05:53:28;24.80;65.60
33067;DHT22;19428;49.024;8.366;2023-07-09T05:55:55;24.40;66.50
33067;DHT22;19428;49.024;8.366;2023-07-09T05:58:22;24.30;64.40
33067;DHT22;19428;49.024;8.366;2023-07-09T06:00:54;24.10;62.50
33067;DHT22;19428;49.024;8.366;2023-07-09T06:03:22;24.20;58.80
33067;DHT22;19428;49.024;8.366;2023-07-09T06:05:48;24.30;58.90
33067;DHT22;19428;49.024;8.366;2023-07-09T06:08:17;24.50;57.30
33067;DHT22;19428;49.024;8.366;2023-07-09T06:10:57;24.50;56.70
33067;DHT22;19428;49.024;8.366;2023-07-09T06:13:24;24.60;53.30
33067;DHT22;19428;49.024;8.366;2023-07-09T06:15:51;25.00;51.40
33067;DHT22;19428;49.024;8.366;2023-07-09T06:18:18;25.40;50.70
33067;DHT22;19428;49.024;8.366;2023-07-09T06:20:55;26.30;45.90
33067;DHT22;19428;49.024;8.366;2023-07-09T06:23:21;26.60;38.00
33067;DHT22;19428;49.024;8.366;2023-07-09T06:25:46;26.00;39.70
33067;DHT22;19428;49.024;8.366;2023-07-09T06:28:17;26.00;40.10
33067;DHT22;19428;49.024;8.366;2023-07-09T06:30:45;26.40;40.40
33067;DHT22;19428;49.024;8.366;2023-07-09T06:33:13;26.60;36.80
33067;DHT22;19428;49.024;8.366;2023-07-09T06:35:45;26.80;33.40
33067;DHT22;19428;49.024;8.366;2023-07-09T06:38:11;27.20;33.00
33067;DHT22;19428;49.024;8.366;2023-07-09T06:40:36;27.10;28.70
33067;DHT22;19428;49.024;8.366;2023-07-09T06:43:02;27.00;29.40
33067;DHT22;19428;49.024;8.366;2023-07-09T06:45:27;26.80;30.10
33067;DHT22;19428;49.024;8.366;2023-07-09T06:47:53;27.10;30.40
33067;DHT22;19428;49.024;8.366;2023-07-09T06:50:19;26.80;29.90
33067;DHT22;19428;49.024;8.366;2023-07-09T06:52:44;26.70;30.50
33067;DHT22;19428;49.024;8.366;2023-07-09T06:55:10;27.50;29.00
33067;DHT22;19428;49.024;8.366;2023-07-09T06:57:36;27.80;26.10
33067;DHT22;19428;49.024;8.366;2023-07-09T07:00:02;28.10;23.60
33067;DHT22;19428;49.024;8.366;2023-07-09T07:02:28;28.30;21.90
33067;DHT22;19428;49.024;8.366;2023-07-09T07:04:54;28.40;20.30
33067;DHT22;19428;49.024;8.366;2023-07-09T07:07:20;27.60;21.90
33067;DHT22;19428;49.024;8.366;2023-07-09T07:09:46;27.70;24.40
33067;DHT22;19428;49.024;8.366;2023-07-09T07:12:22;28.10;21.20
33067;DHT22;19428;49.024;8.366;2023-07-09T07:14:48;28.00;20.50
33067;DHT22;19428;49.024;8.366;2023-07-09T07:17:14;27.60;21.10
33067;DHT22;19428;49.024;8.366;2023-07-09T07:19:39;27.70;21.40
33067;DHT22;19428;49.024;8.366;2023-07-09T07:22:05;27.90;20.90
33067;DHT22;19428;49.024;8.366;2023-07-09T07:24:32;28.40;20.00
33067;DHT22;19428;49.024;8.366;2023-07-09T07:26:58;28.50;21.10
33067;DHT22;19428;49.024;8.366;2023-07-09T07:29:24;28.50;19.50
33067;DHT22;19428;49.024;8.366;2023-07-09T07:31:49;28.10;18.50
33067;DHT22;19428;49.024;8.366;2023-07-09T07:34:15;28.00;21.30
33067;DHT22;19428;49.024;8.366;2023-07-09T07:36:40;27.90;22.40
33067;DHT22;19428;49.024;8.366;2023-07-09T07:39:06;28.20;22.00
33067;DHT22;19428;49.024;8.366;2023-07-09T07:41:31;28.60;21.60
33067;DHT22;19428;49.024;8.366;2023-07-09T07:43:57;29.10;16.80
33067;DHT22;19428;49.024;8.366;2023-07-09T07:46:23;28.50;19.00
33067;DHT22;19428;49.024;8.366;2023-07-09T07:48:48;28.60;16.60
33067;DHT22;19428;49.024;8.366;2023-07-09T07:51:14;28.60;17.60
33067;DHT22;19428;49.024;8.366;2023-07-09T07:53:39;28.60;20.10
33067;DHT22;19428;49.024;8.366;2023-07-09T07:56:05;28.80;17.10
33067;DHT22;19428;49.024;8.366;2023-07-09T07:58:31;28.70;15.80
33067;DHT22;19428;49.024;8.366;2023-07-09T08:00:57;28.50;18.30
33067;DHT22;19428;49.024;8.366;2023-07-09T08:03:24;28.80;16.60
33067;DHT22;19428;49.024;8.366;2023-07-09T08:05:50;28.60;15.40
33067;DHT22;19428;49.024;8.366;2023-07-09T08:08:16;29.20;12.30
33067;DHT22;19428;49.024;8.366;2023-07-09T08:10:42;28.90;15.30
33067;DHT22;19428;49.024;8.366;2023-07-09T08:13:08;29.20;15.40
33067;DHT22;19428;49.024;8.366;2023-07-09T08:15:34;29.10;12.40
33067;DHT22;19428;49.024;8.366;2023-07-09T08:18:00;29.10;11.70
33067;DHT22;19428;49.024;8.366;2023-07-09T08:20:26;29.10;11.70
33067;DHT22;19428;49.024;8.366;2023-07-09T08:22:51;29.00;12.70
33067;DHT22;19428;49.024;8.366;2023-07-09T08:25:17;29.70;10.60
33067;DHT22;19428;49.024;8.366;2023-07-09T08:27:42;29.70;8.90
33067;DHT22;19428;49.024;8.366;2023-07-09T08:30:08;29.40;10.40
33067;DHT22;19428;49.024;8.366;2023-07-09T08:32:34;29.20;11.50
33067;DHT22;19428;49.024;8.366;2023-07-09T08:35:00;29.50;12.20
33067;DHT22;19428;49.024;8.366;2023-07-09T08:37:25;29.40;9.70
33067;DHT22;19428;49.024;8.366;2023-07-09T08:39:51;29.70;6.60
33067;DHT22;19428;49.024;8.366;2023-07-09T08:42:29;29.80;6.40
33067;DHT22;19428;49.024;8.366;2023-07-09T08:50:47;30.20;9.60
33067;DHT22;19428;49.024;8.366;2023-07-09T08:53:29;30.20;2.60
33067;DHT22;19428;49.024;8.366;2023-07-09T08:55:56;30.00;5.20
33067;DHT22;19428;49.024;8.366;2023-07-09T08:58:25;30.10;3.00
33067;DHT22;19428;49.024;8.366;2023-07-09T09:00:59;30.70;1.20
33067;DHT22;19428;49.024;8.366;2023-07-09T09:03:44;30.20;1.00
33067;DHT22;19428;49.024;8.366;2023-07-09T09:06:16;29.90;4.40
33067;DHT22;19428;49.024;8.366;2023-07-09T09:14:03;30.70;1.00
33067;DHT22;19428;49.024;8.366;2023-07-09T09:16:35;30.60;1.00
33067;DHT22;19428;49.024;8.366;2023-07-09T09:19:03;30.80;1.00
33067;DHT22;19428;49.024;8.366;2023-07-09T09:21:36;30.50;2.20
33067;DHT22;19428;49.024;8.366;2023-07-09T09:26:58;30.40;2.40
33067;DHT22;19428;49.024;8.366;2023-07-09T09:29:24;30.40;2.90
33067;DHT22;19428;49.024;8.366;2023-07-09T09:31:53;31.00;1.00
33067;DHT22;19428;49.024;8.366;2023-07-09T09:34:22;31.90;1.00
33067;DHT22;19428;49.024;8.366;2023-07-09T09:36:49;32.00;1.00
33067;DHT22;19428;49.024;8.366;2023-07-09T09:39:16;31.80;1.00
33067;DHT22;19428;49.024;8.366;2023-07-09T09:41:44;31.60;1.00
33067;DHT22;19428;49.024;8.366;2023-07-09T09:44:26;31.30;1.00
33067;DHT22;19428;49.024;8.366;2023-07-09T09:46:52;31.60;1.00
33067;DHT22;19428;49.024;8.366;2023-07-09T09:49:20;32.00;1.00
33067;DHT22;19428;49.024;8.366;2023-07-09T09:51:47;31.60;1.00
33067;DHT22;19428;49.024;8.366;2023-07-09T09:54:19;31.60;1.00
33067;DHT22;19428;49.024;8.366;2023-07-09T09:56:48;31.80;1.00
33067;DHT22;19428;49.024;8.366;2023-07-09T09:59:27;31.80;1.00
33067;DHT22;19428;49.024;8.366;2023-07-09T10:01:59;32.00;1.00
33067;DHT22;19428;49.024;8.366;2023-07-09T10:04:26;32.20;1.00
33067;DHT22;19428;49.024;8.366;2023-07-09T10:06:56;32.10;1.00
33067;DHT22;19428;49.024;8.366;2023-07-09T10:09:53;32.40;1.00
33067;DHT22;19428;49.024;8.366;2023-07-09T10:18:03;32.40;1.00
33067;DHT22;19428;49.024;8.366;2023-07-09T10:20:41;32.30;1.00
33067;DHT22;19428;49.024;8.366;2023-07-09T10:25:55;32.20;1.00
33067;DHT22;19428;49.024;8.366;2023-07-09T10:31:50;32.50;1.00
33067;DHT22;19428;49.024;8.366;2023-07-09T10:34:49;32.90;1.00
33067;DHT22;19428;49.024;8.366;2023-07-09T10:39:58;32.60;1.00
33067;DHT22;19428;49.024;8.366;2023-07-09T10:42:33;32.90;1.00
33067;DHT22;19428;49.024;8.366;2023-07-09T10:45:10;32.80;1.00
33067;DHT22;19428;49.024;8.366;2023-07-09T10:47:41;33.10;1.00
33067;DHT22;19428;49.024;8.366;2023-07-09T10:52:52;33.60;1.00
33067;DHT22;19428;49.024;8.366;2023-07-09T10:55:23;33.80;1.00
33067;DHT22;19428;49.024;8.366;2023-07-09T10:57:58;33.40;1.00
33067;DHT22;19428;49.024;8.366;2023-07-09T11:00:38;33.50;1.00
33067;DHT22;19428;49.024;8.366;2023-07-09T11:05:57;33.50;1.00
33067;DHT22;19428;49.024;8.366;2023-07-09T11:08:35;33.60;1.00
33067;DHT22;19428;49.024;8.366;2023-07-09T11:11:06;33.60;1.00
33067;DHT22;19428;49.024;8.366;2023-07-09T11:13:58;34.00;1.00
33067;DHT22;19428;49.024;8.366;2023-07-09T11:16:38;34.50;1.00
33067;DHT22;19428;49.024;8.366;2023-07-09T11:19:05;34.70;1.00
33067;DHT22;19428;49.024;8.366;2023-07-09T11:21:44;34.80;1.00
33067;DHT22;19428;49.024;8.366;2023-07-09T11:24:35;34.30;1.00
33067;DHT22;19428;49.024;8.366;2023-07-09T11:27:01;34.20;1.00
33067;DHT22;19428;49.024;8.366;2023-07-09T11:29:27;34.20;1.00
33067;DHT22;19428;49.024;8.366;2023-07-09T11:31:54;34.70;1.00
33067;DHT22;19428;49.024;8.366;2023-07-09T11:34:27;34.30;1.00
33067;DHT22;19428;49.024;8.366;2023-07-09T11:37:01;34.30;1.00
33067;DHT22;19428;49.024;8.366;2023-07-09T11:42:31;35.80;1.00
33067;DHT22;19428;49.024;8.366;2023-07-09T11:45:08;35.10;1.00
33067;DHT22;19428;49.024;8.366;2023-07-09T11:47:40;35.80;1.00
33067;DHT22;19428;49.024;8.366;2023-07-09T11:50:25;36.10;1.00
33067;DHT22;19428;49.024;8.366;2023-07-09T11:52:56;36.40;1.00
33067;DHT22;19428;49.024;8.366;2023-07-09T11:55:41;37.00;1.00
33067;DHT22;19428;49.024;8.366;2023-07-09T11:58:10;37.30;1.00
33067;DHT22;19428;49.024;8.366;2023-07-09T12:00:40;35.90;1.00
33067;DHT22;19428;49.024;8.366;2023-07-09T12:03:15;36.10;1.00
33067;DHT22;19428;49.024;8.366;2023-07-09T12:06:01;36.20;1.00
33067;DHT22;19428;49.024;8.366;2023-07-09T12:08:33;35.70;1.00
33067;DHT22;19428;49.024;8.366;2023-07-09T12:10:59;36.70;1.00
33067;DHT22;19428;49.024;8.366;2023-07-09T12:13:24;37.80;1.00
33067;DHT22;19428;49.024;8.366;2023-07-09T12:15:50;36.90;1.00
33067;DHT22;19428;49.024;8.366;2023-07-09T12:18:16;37.40;1.00
33067;DHT22;19428;49.024;8.366;2023-07-09T12:20:47;36.80;1.00
33067;DHT22;19428;49.024;8.366;2023-07-09T12:23:25;36.80;1.00
33067;DHT22;19428;49.024;8.366;2023-07-09T12:25:52;36.50;1.00
33067;DHT22;19428;49.024;8.366;2023-07-09T12:28:19;36.90;1.00
33067;DHT22;19428;49.024;8.366;2023-07-09T12:30:46;36.50;1.00
33067;DHT22;19428;49.024;8.366;2023-07-09T12:33:17;36.10;1.00
33067;DHT22;19428;49.024;8.366;2023-07-09T12:35:42;36.50;1.00
33067;DHT22;19428;49.024;8.366;2023-07-09T12:38:24;37.20;1.00
33067;DHT22;19428;49.024;8.366;2023-07-09T12:40:51;37.30;1.00
33067;DHT22;19428;49.024;8.366;2023-07-09T12:43:30;37.90;1.00
33067;DHT22;19428;49.024;8.366;2023-07-09T12:45:58;38.90;1.00
33067;DHT22;19428;49.024;8.366;2023-07-09T12:48:27;38.90;1.00
33067;DHT22;19428;49.024;8.366;2023-07-09T12:50:56;37.90;1.00
33067;DHT22;19428;49.024;8.366;2023-07-09T12:53:26;38.00;1.00
33067;DHT22;19428;49.024;8.366;2023-07-09T12:55:56;38.70;1.00
33067;DHT22;19428;49.024;8.366;2023-07-09T12:58:24;38.60;1.00
33067;DHT22;19428;49.024;8.366;2023-07-09T13:00:52;38.20;1.00
33067;DHT22;19428;49.024;8.366;2023-07-09T13:03:21;37.40;1.00
33067;DHT22;19428;49.024;8.366;2023-07-09T13:05:56;37.60;1.00
33067;DHT22;19428;49.024;8.366;2023-07-09T13:08:23;36.80;1.00
33067;DHT22;19428;49.024;8.366;2023-07-09T13:10:49;36.70;1.00
33067;DHT22;19428;49.024;8.366;2023-07-09T13:13:19;37.20;1.00
33067;DHT22;19428;49.024;8.366;2023-07-09T13:15:59;37.60;1.00
33067;DHT22;19428;49.024;8.366;2023-07-09T13:18:27;37.20;1.00
33067;DHT22;19428;49.024;8.366;2023-07-09T13:20:54;36.90;1.00
33067;DHT22;19428;49.024;8.366;2023-07-09T13:23:24;36.70;1.00
33067;DHT22;19428;49.024;8.366;2023-07-09T13:25:50;37.30;1.00
33067;DHT22;19428;49.024;8.366;2023-07-09T13:28:20;38.20;1.00
33067;DHT22;19428;49.024;8.366;2023-07-09T13:30:50;37.80;1.00
33067;DHT22;19428;49.024;8.366;2023-07-09T13:33:16;38.00;1.00
33067;DHT22;19428;49.024;8.366;2023-07-09T13:35:44;37.90;1.00
33067;DHT22;19428;49.024;8.366;2023-07-09T13:38:17;36.90;1.00
33067;DHT22;19428;49.024;8.366;2023-07-09T13:40:45;37.30;1.00
33067;DHT22;19428;49.024;8.366;2023-07-09T13:43:15;37.00;1.00
33067;DHT22;19428;49.024;8.366;2023-07-09T13:45:41;36.80;1.00
33067;DHT22;19428;49.024;8.366;2023-07-09T13:48:18;37.10;1.00
33067;DHT22;19428;49.024;8.366;2023-07-09T13:50:45;37.40;1.00
33067;DHT22;19428;49.024;8.366;2023-07-09T13:53:19;37.20;1.00
33067;DHT22;19428;49.024;8.366;2023-07-09T13:55:46;37.10;1.00
33067;DHT22;19428;49.024;8.366;2023-07-09T13:58:14;37.20;1.00
33067;DHT22;19428;49.024;8.366;2023-07-09T14:00:41;37.40;1.00
33067;DHT22;19428;49.024;8.366;2023-07-09T14:03:17;37.00;1.00
33067;DHT22;19428;49.024;8.366;2023-07-09T14:05:44;37.00;1.00
33067;DHT22;19428;49.024;8.366;2023-07-09T14:08:09;37.00;1.00
33067;DHT22;19428;49.024;8.366;2023-07-09T14:10:36;36.70;1.00
33067;DHT22;19428;49.024;8.366;2023-07-09T14:13:01;36.70;1.00
33067;DHT22;19428;49.024;8.366;2023-07-09T14:15:30;37.30;1.00
33067;DHT22;19428;49.024;8.366;2023-07-09T14:17:55;37.30;1.00
33067;DHT22;19428;49.024;8.366;2023-07-09T14:20:21;37.50;1.00
33067;DHT22;19428;49.024;8.366;2023-07-09T14:22:49;37.80;1.00
33067;DHT22;19428;49.024;8.366;2023-07-09T14:25:23;37.60;1.00
33067;DHT22;19428;49.024;8.366;2023-07-09T14:27:50;37.80;1.00
33067;DHT22;19428;49.024;8.366;2023-07-09T14:30:18;37.70;1.00
33067;DHT22;19428;49.024;8.366;2023-07-09T14:32:46;37.60;1.00
33067;DHT22;19428;49.024;8.366;2023-07-09T14:37:40;38.10;1.00
33067;DHT22;19428;49.024;8.366;2023-07-09T14:40:06;38.30;1.00
33067;DHT22;19428;49.024;8.366;2023-07-09T14:42:36;38.30;1.00
33067;DHT22;19428;49.024;8.366;2023-07-09T14:45:01;38.80;1.00
33067;DHT22;19428;49.024;8.366;2023-07-09T14:47:28;38.80;1.00
33067;DHT22;19428;49.024;8.366;2023-07-09T14:49:54;39.00;1.00
33067;DHT22;19428;49.024;8.366;2023-07-09T14:52:21;38.60;1.00
33067;DHT22;19428;49.024;8.366;2023-07-09T14:54:47;37.70;1.00
33067;DHT22;19428;49.024;8.366;2023-07-09T14:57:20;37.70;1.00
33067;DHT22;19428;49.024;8.366;2023-07-09T14:59:47;38.00;1.00
33067;DHT22;19428;49.024;8.366;2023-07-09T15:02:37;38.60;1.00
33067;DHT22;19428;49.024;8.366;2023-07-09T15:05:04;38.30;1.00
33067;DHT22;19428;49.024;8.366;2023-07-09T15:07:32;38.00;1.00
33067;DHT22;19428;49.024;8.366;2023-07-09T15:10:01;37.80;1.00
33067;DHT22;19428;49.024;8.366;2023-07-09T15:12:35;37.90;1.00
33067;DHT22;19428;49.024;8.366;2023-07-09T15:15:13;38.00;1.00
33067;DHT22;19428;49.024;8.366;2023-07-09T15:17:40;38.10;1.00
33067;DHT22;19428;49.024;8.366;2023-07-09T15:20:12;37.70;1.00
33067;DHT22;19428;49.024;8.366;2023-07-09T15:22:39;36.90;1.00
33067;DHT22;19428;49.024;8.366;2023-07-09T15:25:12;36.70;1.00
33067;DHT22;19428;49.024;8.366;2023-07-09T15:27:38;36.40;1.00
33067;DHT22;19428;49.024;8.366;2023-07-09T15:30:21;36.00;1.00
33067;DHT22;19428;49.024;8.366;2023-07-09T15:32:48;35.90;1.00
33067;DHT22;19428;49.024;8.366;2023-07-09T15:35:16;35.90;1.00
33067;DHT22;19428;49.024;8.366;2023-07-09T15:37:43;35.90;1.00
33067;DHT22;19428;49.024;8.366;2023-07-09T15:40:23;35.90;1.00
33067;DHT22;19428;49.024;8.366;2023-07-09T15:42:52;35.80;1.00
33067;DHT22;19428;49.024;8.366;2023-07-09T15:45:20;35.60;1.00
33067;DHT22;19428;49.024;8.366;2023-07-09T15:47:47;35.50;1.00
33067;DHT22;19428;49.024;8.366;2023-07-09T15:50:26;35.40;1.00
33067;DHT22;19428;49.024;8.366;2023-07-09T15:52:52;35.50;1.00
33067;DHT22;19428;49.024;8.366;2023-07-09T15:55:21;35.20;1.00
33067;DHT22;19428;49.024;8.366;2023-07-09T15:57:49;35.10;1.00
33067;DHT22;19428;49.024;8.366;2023-07-09T16:00:17;35.00;1.00
33067;DHT22;19428;49.024;8.366;2023-07-09T16:02:43;34.70;1.00
33067;DHT22;19428;49.024;8.366;2023-07-09T16:05:33;34.70;1.00
33067;DHT22;19428;49.024;8.366;2023-07-09T16:08:01;34.60;1.00
33067;DHT22;19428;49.024;8.366;2023-07-09T16:10:27;34.60;1.00
33067;DHT22;19428;49.024;8.366;2023-07-09T16:12:56;34.40;1.00
33067;DHT22;19428;49.024;8.366;2023-07-09T16:15:23;34.40;1.00
33067;DHT22;19428;49.024;8.366;2023-07-09T16:17:50;34.30;1.00
33067;DHT22;19428;49.024;8.366;2023-07-09T16:20:18;34.20;1.00
33067;DHT22;19428;49.024;8.366;2023-07-09T16:22:47;34.10;1.00
33067;DHT22;19428;49.024;8.366;2023-07-09T16:25:20;34.10;1.00
33067;DHT22;19428;49.024;8.366;2023-07-09T16:27:46;34.00;1.00